createdAt,value
2018-12-10T00:00:30.745Z,3.00
2018-12-10T00:03:03.923Z,3.00
2018-12-10T00:05:31.390Z,3.10
2018-12-10T00:07:58.893Z,3.10
2018-12-10T00:10:26.483Z,3.20
2018-12-10T00:12:54.085Z,3.20
2018-12-10T00:15:21.529Z,3.20
2018-12-10T00:17:49.008Z,3.20
2018-12-10T00:20:16.563Z,3.10
2018-12-10T00:22:44.009Z,3.10
2018-12-10T00:25:11.467Z,3.10
2018-12-10T00:27:38.909Z,3.10
2018-12-10T00:30:07.004Z,3.20
2018-12-10T00:32:34.465Z,3.30
2018-12-10T00:35:02.038Z,3.30
2018-12-10T00:37:29.460Z,3.20
2018-12-10T00:39:56.904Z,3.10
2018-12-10T00:42:24.374Z,3.00
2018-12-10T00:44:51.871Z,3.00
2018-12-10T00:47:19.308Z,2.90
2018-12-10T00:49:46.897Z,2.90
2018-12-10T00:52:14.506Z,2.90
2018-12-10T00:54:41.961Z,2.90
2018-12-10T00:57:09.464Z,2.90
2018-12-10T00:59:36.945Z,2.90
2018-12-10T01:02:04.461Z,3.00
2018-12-10T01:04:32.171Z,3.00
2018-12-10T01:06:59.621Z,3.00
2018-12-10T01:09:27.145Z,3.00
2018-12-10T01:11:54.656Z,3.00
2018-12-10T01:14:22.533Z,3.00
2018-12-10T01:16:50.506Z,3.00
2018-12-10T01:19:17.994Z,2.90
2018-12-10T01:21:45.425Z,2.90
2018-12-10T01:24:12.878Z,2.90
2018-12-10T01:26:41.781Z,2.90
2018-12-10T01:31:48.979Z,2.80
2018-12-10T01:34:17.939Z,2.80
2018-12-10T01:37:02.728Z,2.80
2018-12-10T01:39:30.172Z,2.80
2018-12-10T01:41:57.898Z,2.80
2018-12-10T01:44:25.529Z,2.70
2018-12-10T01:46:53.595Z,2.70
2018-12-10T01:49:21.112Z,2.70
2018-12-10T01:51:48.997Z,2.70
2018-12-10T01:54:17.017Z,2.70
2018-12-10T01:56:47.160Z,2.70
2018-12-10T01:59:17.754Z,2.70
2018-12-10T02:01:45.226Z,2.70
2018-12-10T02:04:13.796Z,2.70
2018-12-10T02:06:41.238Z,2.70
2018-12-10T02:09:08.743Z,2.70
2018-12-10T02:11:36.196Z,2.60
2018-12-10T02:14:05.832Z,2.50
2018-12-10T02:16:33.352Z,2.40
2018-12-10T02:19:00.843Z,2.40
2018-12-10T02:21:28.303Z,2.30
2018-12-10T02:23:55.761Z,2.30
2018-12-10T02:26:23.931Z,2.20
2018-12-10T02:28:57.202Z,2.20
2018-12-10T02:31:24.647Z,2.10
2018-12-10T02:33:52.288Z,2.20
2018-12-10T02:36:19.765Z,2.20
2018-12-10T02:38:47.198Z,2.30
2018-12-10T02:41:14.692Z,2.40
2018-12-10T02:43:42.417Z,2.40
2018-12-10T02:46:09.886Z,2.40
2018-12-10T02:48:37.334Z,2.40
2018-12-10T02:51:04.871Z,2.50
2018-12-10T02:53:32.411Z,2.40
2018-12-10T02:55:59.845Z,2.40
2018-12-10T02:58:27.348Z,2.30
2018-12-10T03:00:54.772Z,2.30
2018-12-10T03:03:22.466Z,2.30
2018-12-10T03:05:50.009Z,2.30
2018-12-10T03:08:17.539Z,2.30
2018-12-10T03:10:44.984Z,2.40
2018-12-10T03:13:12.694Z,2.40
2018-12-10T03:15:40.184Z,2.40
2018-12-10T03:18:07.670Z,2.40
2018-12-10T03:20:35.132Z,2.40
2018-12-10T03:23:02.618Z,2.40
2018-12-10T03:25:30.173Z,2.50
2018-12-10T03:27:57.641Z,2.40
2018-12-10T03:30:25.186Z,2.40
2018-12-10T03:32:52.722Z,2.40
2018-12-10T03:35:20.529Z,2.40
2018-12-10T03:37:47.998Z,2.50
2018-12-10T03:40:15.483Z,2.50
2018-12-10T03:42:43.031Z,2.50
2018-12-10T03:45:10.453Z,2.60
2018-12-10T03:47:37.973Z,2.50
2018-12-10T03:50:06.666Z,2.50
2018-12-10T03:52:34.187Z,2.40
2018-12-10T03:55:01.665Z,2.30
2018-12-10T03:57:29.239Z,2.40
2018-12-10T03:59:56.696Z,2.30
2018-12-10T04:02:24.188Z,2.30
2018-12-10T04:04:51.656Z,2.40
2018-12-10T04:07:19.118Z,2.30
2018-12-10T04:09:46.624Z,2.40
2018-12-10T04:12:14.208Z,2.30
2018-12-10T04:14:41.652Z,2.20
2018-12-10T04:17:09.061Z,2.10
2018-12-10T04:19:36.549Z,2.00
2018-12-10T04:22:04.016Z,2.00
2018-12-10T04:24:31.797Z,2.00
2018-12-10T04:26:59.230Z,2.00
2018-12-10T04:29:26.656Z,2.00
2018-12-10T04:31:54.116Z,2.00
2018-12-10T04:34:21.573Z,2.00
2018-12-10T04:36:49.168Z,2.00
2018-12-10T04:39:16.612Z,2.00
2018-12-10T04:41:44.080Z,2.00
2018-12-10T04:44:11.745Z,2.00
2018-12-10T04:46:39.235Z,2.00
2018-12-10T04:49:06.682Z,2.00
2018-12-10T04:51:34.136Z,2.00
2018-12-10T04:54:01.580Z,2.00
2018-12-10T04:56:29.079Z,2.00
2018-12-10T04:58:56.525Z,2.00
2018-12-10T05:01:23.999Z,2.00
2018-12-10T05:03:51.472Z,2.00
2018-12-10T05:06:18.941Z,2.00
2018-12-10T05:08:46.413Z,2.00
2018-12-10T05:11:13.916Z,2.00
2018-12-10T05:13:41.661Z,2.10
2018-12-10T05:16:09.266Z,2.00
2018-12-10T05:18:36.840Z,2.00
2018-12-10T05:21:04.331Z,1.80
2018-12-10T05:23:31.754Z,1.70
2018-12-10T05:25:59.295Z,1.60
2018-12-10T05:28:26.771Z,1.50
2018-12-10T05:30:54.256Z,1.50
2018-12-10T05:33:22.241Z,1.60
2018-12-10T05:35:49.665Z,1.60
2018-12-10T05:38:17.185Z,1.70
2018-12-10T05:40:44.777Z,1.70
2018-12-10T05:43:12.211Z,1.70
2018-12-10T05:45:39.715Z,1.60
2018-12-10T05:48:07.335Z,1.70
2018-12-10T05:50:34.759Z,1.70
2018-12-10T05:53:02.212Z,1.80
2018-12-10T05:55:29.758Z,1.80
2018-12-10T05:57:57.253Z,1.80
2018-12-10T06:00:24.829Z,1.80
2018-12-10T06:02:52.305Z,1.90
2018-12-10T06:05:19.741Z,1.90
2018-12-10T06:07:47.175Z,1.90
2018-12-10T06:10:14.659Z,2.00
2018-12-10T06:12:42.121Z,2.00
2018-12-10T06:15:09.608Z,1.90
2018-12-10T06:17:37.139Z,2.00
2018-12-10T06:20:05.202Z,2.00
2018-12-10T06:22:32.634Z,1.90
2018-12-10T06:25:00.175Z,2.00
2018-12-10T06:27:27.661Z,2.00
2018-12-10T06:29:55.094Z,2.00
2018-12-10T06:32:22.582Z,2.00
2018-12-10T06:34:50.074Z,2.00
2018-12-10T06:37:17.604Z,2.00
2018-12-10T06:39:45.100Z,2.00
2018-12-10T06:42:12.616Z,2.00
2018-12-10T06:44:40.072Z,2.00
2018-12-10T06:47:07.512Z,2.00
2018-12-10T06:49:35.048Z,2.00
2018-12-10T06:52:02.587Z,1.90
2018-12-10T06:54:30.070Z,1.90
2018-12-10T06:56:57.500Z,1.90
2018-12-10T06:59:24.998Z,1.90
2018-12-10T07:01:52.472Z,1.80
2018-12-10T07:04:19.929Z,1.80
2018-12-10T07:06:47.339Z,1.90
2018-12-10T07:09:14.858Z,1.90
2018-12-10T07:11:42.287Z,1.90
2018-12-10T07:14:09.769Z,1.90
2018-12-10T07:16:37.559Z,1.90
2018-12-10T07:19:04.995Z,1.90
2018-12-10T07:21:33.076Z,2.00
2018-12-10T07:24:00.591Z,2.00
2018-12-10T07:26:28.026Z,2.00
2018-12-10T07:28:55.485Z,2.00
2018-12-10T07:31:22.974Z,2.10
2018-12-10T07:33:50.412Z,2.10
2018-12-10T07:36:17.926Z,2.10
2018-12-10T07:38:45.411Z,1.90
2018-12-10T07:41:12.887Z,1.90
2018-12-10T07:43:40.365Z,1.90
2018-12-10T07:46:07.885Z,1.90
2018-12-10T07:48:35.341Z,1.90
2018-12-10T07:51:02.758Z,1.90
2018-12-10T07:53:30.235Z,1.90
2018-12-10T07:55:57.679Z,1.90
2018-12-10T07:58:25.269Z,1.90
2018-12-10T08:00:52.724Z,1.90
2018-12-10T08:03:20.214Z,2.00
2018-12-10T08:05:47.692Z,2.00
2018-12-10T08:08:15.211Z,2.00
2018-12-10T08:10:42.619Z,2.10
2018-12-10T08:13:10.184Z,2.10
2018-12-10T08:15:37.650Z,2.10
2018-12-10T08:18:05.278Z,2.20
2018-12-10T08:20:32.707Z,2.20
2018-12-10T08:23:00.182Z,2.20
2018-12-10T08:25:27.655Z,2.30
2018-12-10T08:27:55.100Z,2.30
2018-12-10T08:30:22.596Z,2.40
2018-12-10T08:32:50.088Z,2.30
2018-12-10T08:35:17.504Z,2.30
2018-12-10T08:37:45.058Z,2.20
2018-12-10T08:40:12.671Z,2.20
2018-12-10T08:42:40.148Z,2.10
2018-12-10T08:45:07.870Z,2.10
2018-12-10T08:47:35.348Z,2.00
2018-12-10T08:50:03.560Z,2.00
2018-12-10T08:52:31.011Z,2.00
2018-12-10T08:54:58.486Z,2.00
2018-12-10T08:57:25.956Z,2.00
2018-12-10T08:59:53.408Z,2.00
2018-12-10T09:02:20.921Z,2.10
2018-12-10T09:04:48.385Z,2.30
2018-12-10T09:07:15.868Z,2.50
2018-12-10T09:09:43.371Z,2.60
2018-12-10T09:12:10.788Z,2.70
2018-12-10T09:14:38.507Z,2.80
2018-12-10T09:17:05.935Z,2.80
2018-12-10T09:19:33.534Z,2.80
2018-12-10T09:22:01.139Z,2.70
2018-12-10T09:24:28.642Z,2.70
2018-12-10T09:26:56.149Z,2.60
2018-12-10T09:29:23.782Z,2.60
2018-12-10T09:31:51.248Z,2.60
2018-12-10T09:34:18.729Z,2.60
2018-12-10T09:36:46.694Z,2.60
2018-12-10T09:39:14.124Z,2.60
2018-12-10T09:41:41.549Z,2.60
2018-12-10T09:44:09.084Z,2.70
2018-12-10T09:46:36.519Z,2.80
2018-12-10T09:49:04.002Z,2.80
2018-12-10T09:51:31.520Z,2.80
2018-12-10T09:53:58.969Z,2.80
2018-12-10T09:56:26.464Z,2.90
2018-12-10T09:58:53.981Z,2.90
2018-12-10T10:01:21.473Z,2.90
2018-12-10T10:03:48.948Z,2.90
2018-12-10T10:06:16.438Z,2.80
2018-12-10T10:08:43.874Z,2.80
2018-12-10T10:11:11.312Z,2.80
2018-12-10T10:13:38.813Z,2.90
2018-12-10T10:16:06.278Z,2.80
2018-12-10T10:18:33.718Z,2.90
2018-12-10T10:21:01.223Z,3.00
2018-12-10T10:23:28.624Z,3.10
2018-12-10T10:25:56.182Z,3.30
2018-12-10T10:28:23.657Z,3.40
2018-12-10T10:30:51.212Z,3.60
2018-12-10T10:33:18.620Z,3.60
2018-12-10T10:35:46.098Z,3.40
2018-12-10T10:38:15.198Z,3.20
2018-12-10T10:40:42.957Z,3.00
2018-12-10T10:43:10.468Z,3.10
2018-12-10T10:45:38.040Z,3.10
2018-12-10T10:48:05.472Z,3.00
2018-12-10T10:50:32.915Z,2.90
2018-12-10T10:53:00.476Z,2.70
2018-12-10T10:55:27.948Z,2.60
2018-12-10T10:57:55.522Z,2.50
2018-12-10T11:00:28.624Z,2.50
2018-12-10T11:02:58.288Z,2.60
2018-12-10T11:05:25.772Z,2.70
2018-12-10T11:07:54.087Z,2.90
2018-12-10T11:10:21.785Z,3.00
2018-12-10T11:12:49.245Z,3.00
2018-12-10T11:15:16.716Z,3.00
2018-12-10T11:17:44.586Z,3.00
2018-12-10T11:20:12.000Z,3.00
2018-12-10T11:22:40.422Z,3.00
2018-12-10T11:25:08.168Z,3.10
2018-12-10T11:27:35.567Z,3.10
2018-12-10T11:30:03.633Z,3.20
2018-12-10T11:32:31.141Z,3.40
2018-12-10T11:34:58.655Z,3.50
2018-12-10T11:37:26.126Z,3.50
2018-12-10T11:39:53.575Z,3.50
2018-12-10T11:42:21.017Z,3.60
2018-12-10T11:44:48.456Z,3.70
2018-12-10T11:47:15.932Z,3.80
2018-12-10T11:49:43.385Z,3.80
2018-12-10T11:52:10.825Z,3.70
2018-12-10T11:54:38.287Z,3.70
2018-12-10T11:57:05.758Z,3.70
2018-12-10T11:59:33.157Z,3.60
2018-12-10T12:02:00.664Z,3.40
2018-12-10T12:04:28.095Z,3.30
2018-12-10T12:06:55.614Z,3.20
2018-12-10T12:09:23.052Z,3.10
2018-12-10T12:11:50.506Z,3.10
2018-12-10T12:14:17.915Z,3.10
2018-12-10T12:16:45.359Z,3.10
2018-12-10T12:19:12.783Z,3.10
2018-12-10T12:21:40.223Z,3.10
2018-12-10T12:24:07.722Z,3.10
2018-12-10T12:26:35.215Z,3.10
2018-12-10T12:29:02.731Z,3.10
2018-12-10T12:31:30.200Z,3.10
2018-12-10T12:33:57.637Z,3.00
2018-12-10T12:36:25.091Z,3.00
2018-12-10T12:38:52.589Z,2.90
2018-12-10T12:41:20.054Z,2.80
2018-12-10T12:43:47.644Z,2.80
2018-12-10T12:46:15.273Z,2.80
2018-12-10T12:48:42.738Z,2.80
2018-12-10T12:51:10.182Z,2.90
2018-12-10T12:53:37.699Z,2.90
2018-12-10T12:56:05.159Z,3.00
2018-12-10T12:58:32.695Z,2.90
2018-12-10T13:01:00.180Z,2.90
2018-12-10T13:03:27.635Z,3.00
2018-12-10T13:05:55.111Z,3.10
2018-12-10T13:08:30.837Z,3.00
2018-12-10T13:10:51.974Z,2.90
2018-12-10T13:13:19.493Z,2.80
2018-12-10T13:15:47.219Z,2.80
2018-12-10T13:18:14.654Z,2.80
2018-12-10T13:20:42.130Z,2.80
2018-12-10T13:23:09.644Z,2.90
2018-12-10T13:25:37.124Z,2.80
2018-12-10T13:28:04.542Z,2.80
2018-12-10T13:30:32.086Z,2.90
2018-12-10T13:32:59.842Z,3.00
2018-12-10T13:35:27.253Z,3.00
2018-12-10T13:37:55.650Z,3.00
2018-12-10T13:40:23.173Z,3.00
2018-12-10T13:42:50.661Z,2.80
2018-12-10T13:45:18.121Z,2.70
2018-12-10T13:47:45.557Z,2.70
2018-12-10T13:50:12.976Z,2.60
2018-12-10T13:52:40.470Z,2.70
2018-12-10T13:55:07.984Z,2.70
2018-12-10T13:57:35.416Z,2.70
2018-12-10T14:00:03.071Z,2.70
2018-12-10T14:02:30.614Z,2.70
2018-12-10T14:04:59.267Z,2.70
2018-12-10T14:07:26.738Z,2.60
2018-12-10T14:09:54.172Z,2.60
2018-12-10T14:12:21.638Z,2.60
2018-12-10T14:14:49.113Z,2.50
2018-12-10T14:17:16.581Z,2.20
2018-12-10T14:19:44.109Z,2.10
2018-12-10T14:22:11.600Z,1.90
2018-12-10T14:24:39.189Z,1.80
2018-12-10T14:27:06.756Z,1.90
2018-12-10T14:29:34.372Z,1.90
2018-12-10T14:32:01.876Z,1.90
2018-12-10T14:34:29.313Z,1.90
2018-12-10T14:36:56.763Z,1.90
2018-12-10T14:39:24.260Z,1.80
2018-12-10T14:41:51.707Z,1.80
2018-12-10T14:44:19.294Z,1.80
2018-12-10T14:46:46.763Z,1.70
2018-12-10T14:49:14.225Z,1.70
2018-12-10T14:51:41.716Z,1.60
2018-12-10T14:54:09.175Z,1.60
2018-12-10T14:56:36.704Z,1.60
2018-12-10T14:59:04.169Z,1.60
2018-12-10T15:01:31.673Z,1.60
2018-12-10T15:03:59.119Z,1.50
2018-12-10T15:06:26.581Z,1.50
2018-12-10T15:08:54.084Z,1.40
2018-12-10T15:11:21.512Z,1.40
2018-12-10T15:13:48.960Z,1.40
2018-12-10T15:16:16.416Z,1.40
2018-12-10T15:18:43.882Z,1.30
2018-12-10T15:21:11.346Z,1.40
2018-12-10T15:23:38.765Z,1.40
2018-12-10T15:26:06.191Z,1.30
2018-12-10T15:28:33.719Z,1.30
2018-12-10T15:31:01.164Z,1.30
2018-12-10T15:33:28.620Z,1.40
2018-12-10T15:35:56.113Z,1.40
2018-12-10T15:38:23.525Z,1.40
2018-12-10T15:40:51.168Z,1.50
2018-12-10T15:43:18.656Z,1.50
2018-12-10T15:45:46.100Z,1.50
2018-12-10T15:48:13.602Z,1.40
2018-12-10T15:50:41.097Z,1.30
2018-12-10T15:53:08.518Z,1.30
2018-12-10T15:55:35.995Z,1.30
2018-12-10T15:58:03.436Z,1.30
2018-12-10T16:00:30.930Z,1.30
2018-12-10T16:02:58.372Z,1.20
2018-12-10T16:05:25.933Z,1.20
2018-12-10T16:07:53.348Z,1.10
2018-12-10T16:10:20.859Z,1.10
2018-12-10T16:12:48.342Z,1.10
2018-12-10T16:15:15.777Z,1.10
2018-12-10T16:17:43.275Z,1.10
2018-12-10T16:20:10.764Z,1.10
2018-12-10T16:22:38.212Z,1.00
2018-12-10T16:25:05.669Z,1.00
2018-12-10T16:27:33.527Z,1.00
2018-12-10T16:30:00.998Z,1.10
2018-12-10T16:32:28.450Z,1.10
2018-12-10T16:34:55.991Z,1.20
2018-12-10T16:37:23.700Z,1.20
2018-12-10T16:39:51.133Z,1.20
2018-12-10T16:42:18.965Z,1.30
2018-12-10T16:44:46.453Z,1.30
2018-12-10T16:47:13.989Z,1.30
2018-12-10T16:49:41.807Z,1.30
2018-12-10T16:52:09.671Z,1.30
2018-12-10T16:54:37.165Z,1.30
2018-12-10T16:57:04.634Z,1.30
2018-12-10T16:59:32.350Z,1.20
2018-12-10T17:01:59.817Z,1.30
2018-12-10T17:04:27.268Z,1.30
2018-12-10T17:06:54.805Z,1.30
2018-12-10T17:09:22.526Z,1.40
2018-12-10T17:11:50.330Z,1.40
2018-12-10T17:14:18.076Z,1.40
2018-12-10T17:16:45.644Z,1.30
2018-12-10T17:19:13.180Z,1.30
2018-12-10T17:21:40.620Z,1.30
2018-12-10T17:24:08.139Z,1.30
2018-12-10T17:26:35.750Z,1.30
2018-12-10T17:29:03.272Z,1.30
2018-12-10T17:31:30.756Z,1.30
2018-12-10T17:33:58.259Z,1.30
2018-12-10T17:36:25.829Z,1.30
2018-12-10T17:38:53.290Z,1.30
2018-12-10T17:41:20.819Z,1.30
2018-12-10T17:43:48.248Z,1.30
2018-12-10T17:46:15.774Z,1.40
2018-12-10T17:48:43.262Z,1.40
2018-12-10T17:51:10.716Z,1.40
2018-12-10T17:53:38.232Z,1.40
2018-12-10T17:56:05.696Z,1.40
2018-12-10T17:58:33.148Z,1.40
2018-12-10T18:01:00.637Z,1.40
2018-12-10T18:03:28.127Z,1.40
2018-12-10T18:05:55.588Z,1.40
2018-12-10T18:08:23.001Z,1.40
2018-12-10T18:10:50.505Z,1.40
2018-12-10T18:13:18.001Z,1.40
2018-12-10T18:15:45.557Z,1.30
2018-12-10T18:18:13.045Z,1.20
2018-12-10T18:20:40.488Z,1.10
2018-12-10T18:23:08.016Z,1.00
2018-12-10T18:25:35.527Z,1.00
2018-12-10T18:28:03.023Z,1.10
2018-12-10T18:30:30.951Z,1.10
2018-12-10T18:32:58.513Z,1.20
2018-12-10T18:35:26.063Z,1.20
2018-12-10T18:37:53.500Z,1.30
2018-12-10T18:40:20.949Z,1.30
2018-12-10T18:42:48.396Z,1.20
2018-12-10T18:45:15.956Z,1.20
2018-12-10T18:47:43.377Z,1.20
2018-12-10T18:50:11.422Z,1.20
2018-12-10T18:52:39.524Z,1.20
2018-12-10T18:55:07.208Z,1.20
2018-12-10T18:57:34.660Z,1.20
2018-12-10T19:00:02.636Z,1.20
2018-12-10T19:02:30.230Z,1.30
2018-12-10T19:04:57.671Z,1.30
2018-12-10T19:07:25.124Z,1.30
2018-12-10T19:09:52.603Z,1.30
2018-12-10T19:12:20.069Z,1.30
2018-12-10T19:14:47.586Z,1.30
2018-12-10T19:17:15.218Z,1.30
2018-12-10T19:19:42.700Z,1.30
2018-12-10T19:22:10.243Z,1.40
2018-12-10T19:24:37.750Z,1.40
2018-12-10T19:27:05.265Z,1.30
2018-12-10T19:29:32.792Z,1.40
2018-12-10T19:32:00.275Z,1.40
2018-12-10T19:34:27.792Z,1.30
2018-12-10T19:36:55.200Z,1.40
2018-12-10T19:39:22.735Z,1.40
2018-12-10T19:41:50.262Z,1.40
2018-12-10T19:44:17.653Z,1.40
2018-12-10T19:46:45.151Z,1.40
2018-12-10T19:49:13.591Z,1.30
2018-12-10T19:51:41.209Z,1.30
2018-12-10T19:54:08.663Z,1.40
2018-12-10T19:56:36.118Z,1.40
2018-12-10T19:59:03.633Z,1.40
2018-12-10T20:01:31.227Z,1.30
2018-12-10T20:03:58.686Z,1.30
2018-12-10T20:06:32.431Z,1.40
2018-12-10T20:09:00.035Z,1.30
2018-12-10T20:11:27.537Z,1.40
2018-12-10T20:13:54.972Z,1.40
2018-12-10T20:16:22.466Z,1.30
2018-12-10T20:18:49.981Z,1.40
2018-12-10T20:21:17.546Z,1.40
2018-12-10T20:23:45.184Z,1.40
2018-12-10T20:26:12.606Z,1.30
2018-12-10T20:28:40.122Z,1.30
2018-12-10T20:31:07.609Z,1.40
2018-12-10T20:33:35.049Z,1.40
2018-12-10T20:36:02.585Z,1.40
2018-12-10T20:38:30.391Z,1.40
2018-12-10T20:40:57.943Z,1.50
2018-12-10T20:43:25.426Z,1.50
2018-12-10T20:45:52.841Z,1.50
2018-12-10T20:48:20.341Z,1.50
2018-12-10T20:50:47.848Z,1.50
2018-12-10T20:53:15.339Z,1.50
2018-12-10T20:55:42.892Z,1.50
2018-12-10T20:58:10.415Z,1.50
2018-12-10T21:03:15.837Z,1.50
2018-12-10T21:05:49.469Z,1.40
2018-12-10T21:08:17.097Z,1.40
2018-12-10T21:10:44.632Z,1.40
2018-12-10T21:13:12.115Z,1.40
2018-12-10T21:15:39.620Z,1.40
2018-12-10T21:18:07.051Z,1.40
2018-12-10T21:20:34.574Z,1.40
2018-12-10T21:23:02.005Z,1.40
2018-12-10T21:25:29.496Z,1.40
2018-12-10T21:27:57.036Z,1.40
2018-12-10T21:30:24.518Z,1.40
2018-12-10T21:32:51.968Z,1.40
2018-12-10T21:35:19.505Z,1.40
2018-12-10T21:37:46.952Z,1.40
2018-12-10T21:40:14.404Z,1.40
2018-12-10T21:42:41.917Z,1.40
2018-12-10T21:45:09.428Z,1.40
2018-12-10T21:47:36.894Z,1.40
2018-12-10T21:50:05.173Z,1.40
2018-12-10T21:52:32.653Z,1.40
2018-12-10T21:55:00.957Z,1.30
2018-12-10T21:57:28.588Z,1.30
2018-12-10T21:59:56.206Z,1.30
2018-12-10T22:02:23.660Z,1.30
2018-12-10T22:04:51.244Z,1.30
2018-12-10T22:07:18.843Z,1.20
2018-12-10T22:09:46.264Z,1.30
2018-12-10T22:12:13.937Z,1.30
2018-12-10T22:14:41.420Z,1.30
2018-12-10T22:17:08.928Z,1.30
2018-12-10T22:19:36.348Z,1.30
2018-12-10T22:22:03.920Z,1.30
2018-12-10T22:24:31.347Z,1.30
2018-12-10T22:26:58.945Z,1.30
2018-12-10T22:29:26.438Z,1.30
2018-12-10T22:31:54.062Z,1.30
2018-12-10T22:34:21.568Z,1.30
2018-12-10T22:36:49.126Z,1.30
2018-12-10T22:39:16.546Z,1.30
2018-12-10T22:41:44.014Z,1.40
2018-12-10T22:44:11.515Z,1.30
2018-12-10T22:46:38.965Z,1.30
2018-12-10T22:49:06.377Z,1.30
2018-12-10T22:51:33.891Z,1.30
2018-12-10T22:54:01.331Z,1.30
2018-12-10T22:56:28.770Z,1.30
2018-12-10T22:58:56.210Z,1.30
2018-12-10T23:01:23.712Z,1.40
2018-12-10T23:03:51.161Z,1.40
2018-12-10T23:06:18.717Z,1.40
2018-12-10T23:08:46.154Z,1.40
2018-12-10T23:11:13.653Z,1.40
2018-12-10T23:13:41.102Z,1.40
2018-12-10T23:16:08.540Z,1.30
2018-12-10T23:18:35.956Z,1.30
2018-12-10T23:21:03.469Z,1.30
2018-12-10T23:23:30.920Z,1.30
2018-12-10T23:25:58.491Z,1.30
2018-12-10T23:28:25.987Z,1.30
2018-12-10T23:30:53.586Z,1.30
2018-12-10T23:33:21.052Z,1.30
2018-12-10T23:35:48.518Z,1.30
2018-12-10T23:38:15.960Z,1.30
2018-12-10T23:40:43.384Z,1.30
2018-12-10T23:43:16.687Z,1.40
2018-12-10T23:45:44.137Z,1.40
2018-12-10T23:48:11.598Z,1.40
2018-12-10T23:50:39.065Z,1.40
2018-12-10T23:53:06.512Z,1.30
2018-12-10T23:55:33.944Z,1.30
2018-12-10T23:58:01.419Z,1.30
